AKST,Max TemperatureF,Mean TemperatureF,Min TemperatureF,Max Dew PointF,MeanDew PointF,Min DewpointF,Max Humidity, Mean Humidity, Min Humidity, Max Sea Level PressureIn, Mean Sea Level PressureIn, Min Sea Level PressureIn, Max VisibilityMiles, Mean VisibilityMiles, Min VisibilityMiles, Max Wind SpeedMPH, Mean Wind SpeedMPH, Max Gust SpeedMPH,PrecipitationIn, CloudCover, Events, WindDirDegrees
2012-12-1,32,29,26,25,23,18,93,82,56,29.23,29.19,29.13,10,4,0,14,6,,0.10,7,Fog-Snow,98
2012-12-2,30,28,26,28,26,23,100,90,72,29.16,29.10,29.06,10,4,1,10,3,,0.15,8,Snow,159
2012-12-3,37,34,30,29,26,24,93,75,59,29.34,29.25,29.13,10,8,2,22,9,32,0.01,7,Snow,45
2012-12-4,37,36,35,31,26,24,82,67,62,29.38,29.18,29.06,10,10,3,18,13,29,0.00,6,Rain-Snow,103
2012-12-5,37,35,33,34,30,25,100,83,60,29.70,29.59,29.41,10,6,0,18,13,25,0.17,7,Fog-Snow,117
2012-12-6,37,34,30,34,29,26,100,85,65,29.73,29.67,29.49,10,6,0,23,11,28,0.13,8,Fog-Snow,110
2012-12-7,36,33,30,34,31,27,100,92,70,30.09,29.84,29.57,10,6,0,23,10,34,0.14,7,Rain-Snow,103
2012-12-8,37,34,30,34,29,26,93,80,65,30.11,29.92,29.67,10,7,2,26,13,37,0.09,7,Rain-Snow,109
2012-12-9,45,42,39,43,39,34,100,86,74,30.00,29.88,29.68,10,8,4,24,14,38,0.21,8,Rain-Thunderstorm,244
2012-12-10,44,40,37,41,39,37,100,93,81,30.01,29.56,29.24,10,6,2,15,8,25,1.80,8,Rain,112
2012-12-11,41,36,30,40,36,29,100,92,76,29.87,29.54,29.27,10,10,7,21,6,20,0.04,4,Rain,359
2012-12-12,44,38,32,43,38,29,100,96,86,29.88,29.65,29.39,10,6,2,18,7,23,0.61,8,Rain,127
2012-12-13,44,40,36,43,36,33,100,86,70,29.62,29.53,29.40,10,8,3,32,12,40,0.23,8,Rain-Thunderstorm,286
2012-12-14,41,39,37,37,35,34,93,87,76,29.59,29.17,28.81,10,8,4,24,13,37,0.80,8,Rain,116
2012-12-15,41,37,33,38,34,30,100,91,81,29.19,29.07,28.82,10,8,2,18,9,22,0.50,8,Rain-Snow-Thunderstorm,100
2012-12-16,35,32,30,34,32,26,100,94,82,29.19,29.18,29.16,10,5,0,13,6,,0.13,7,Fog-Snow,122
2012-12-17,32,28,24,31,27,23,100,94,72,29.65,29.34,29.20,10,6,1,8,3,,0.05,5,Snow,73
2012-12-18,34,30,25,29,24,21,96,75,61,29.65,29.43,29.11,10,10,7,22,10,33,0.00,7,,100
2012-12-19,37,36,34,25,23,21,70,59,54,29.41,29.17,29.03,10,10,7,30,17,37,0.00,6,,98
2012-12-20,36,32,27,22,17,12,61,57,51,29.76,29.61,29.43,10,10,7,16,10,24,0.00,4,,98
2012-12-21,30,28,24,15,12,10,60,53,49,29.82,29.79,29.76,10,10,10,14,8,21,0.00,0,,101
2012-12-22,30,26,23,22,16,10,81,64,53,29.76,29.66,29.60,10,10,9,9,5,,0.00,4,Snow,78
2012-12-23,34,31,28,23,19,15,75,63,53,29.83,29.70,29.64,10,10,8,21,6,26,0.00,7,Snow,108
2012-12-24,37,34,30,25,21,16,80,60,44,29.94,29.87,29.78,10,9,2,28,19,39,0.00,4,Snow,114
2012-12-25,39,38,36,30,24,17,76,59,46,29.76,29.68,29.64,10,10,10,22,16,36,0.00,6,,76
2012-12-26,37,32,28,30,27,26,89,79,65,29.81,29.78,29.70,10,10,10,15,4,,0.00,3,,3
2012-12-27,42,38,35,32,30,27,82,70,61,29.73,29.62,29.58,10,8,5,28,19,36,0.04,8,Rain-Snow,113
2012-12-28,41,39,37,38,37,33,100,94,73,30.05,29.88,29.68,10,7,2,15,8,21,0.44,8,Rain,102
2012-12-29,46,41,36,40,36,35,100,84,66,30.09,30.02,29.87,10,10,8,22,7,30,0.00,8,Rain,105
2012-12-30,45,42,39,39,37,35,97,78,68,29.86,29.77,29.70,10,9,6,22,18,30,0.24,8,Rain,107
2012-12-31,44,40,35,39,37,33,100,91,65,30.27,30.07,29.77,10,8,4,14,7,,0.25,7,Rain,106